Time,TemperatureF,DewpointF,PressureIn,WindDirection,WindDirectionDegrees,WindSpeedMPH,WindSpeedGustMPH,Humidity,HourlyPrecipIn,Conditions,Clouds,dailyrainin,SoftwareType,DateUTC
2013-01-10 00:06:00,52.3,31.0,30.37,West,280,3.0,-999.0,45,-99.99,,,0.00,weatherlink.com 1.10,2013-01-10 05:06:00,
2013-01-10 00:21:00,52.0,31.0,30.37,WSW,252,4.0,-999.0,45,-99.99,,,0.00,weatherlink.com 1.10,2013-01-10 05:21:00,
2013-01-10 00:45:00,51.6,31.0,30.37,West,274,2.0,-999.0,45,-99.99,,,0.00,weatherlink.com 1.10,2013-01-10 05:45:00,
2013-01-10 00:51:00,51.1,31.0,30.39,West,271,0.0,-999.0,46,-99.99,,,0.00,weatherlink.com 1.10,2013-01-10 05:51:00,
2013-01-10 01:06:00,51.0,31.0,30.39,WNW,287,6.0,-999.0,46,-99.99,,,0.00,weatherlink.com 1.10,2013-01-10 06:06:00,
2013-01-10 01:21:00,51.0,31.0,30.39,WNW,288,5.0,-999.0,46,-99.99,,,0.00,weatherlink.com 1.10,2013-01-10 06:21:00,
2013-01-10 01:36:00,50.7,30.0,30.39,West,280,1.0,-999.0,46,-99.99,,,0.00,weatherlink.com 1.10,2013-01-10 06:36:00,
2013-01-10 01:51:00,49.8,31.0,30.40,NW,306,0.0,-999.0,48,-99.99,,,0.00,weatherlink.com 1.10,2013-01-10 06:51:00,
2013-01-10 02:06:00,49.6,31.0,30.40,WNW,286,2.0,-999.0,49,-99.99,,,0.00,weatherlink.com 1.10,2013-01-10 07:06:00,
2013-01-10 02:21:00,49.4,31.0,30.41,NW,310,1.0,-999.0,50,-99.99,,,0.00,weatherlink.com 1.10,2013-01-10 07:21:00,
2013-01-10 02:36:00,49.1,31.0,30.42,West,274,2.0,-999.0,50,-99.99,,,0.00,weatherlink.com 1.10,2013-01-10 07:36:00,
2013-01-10 02:51:00,48.6,31.0,30.42,NW,306,3.0,-999.0,51,-99.99,,,0.00,weatherlink.com 1.10,2013-01-10 07:51:00,
2013-01-10 03:06:00,48.0,31.0,30.43,WNW,293,0.0,-999.0,52,-99.99,,,0.00,weatherlink.com 1.10,2013-01-10 08:06:00,
2013-01-10 03:21:00,47.3,31.0,30.43,WNW,291,0.0,-999.0,54,-99.99,,,0.00,weatherlink.com 1.10,2013-01-10 08:21:00,
2013-01-10 03:36:00,46.4,31.0,30.44,WNW,291,0.0,-999.0,56,-99.99,,,0.00,weatherlink.com 1.10,2013-01-10 08:36:00,
2013-01-10 03:51:00,45.2,31.0,30.44,West,269,0.0,-999.0,57,-99.99,,,0.00,weatherlink.com 1.10,2013-01-10 08:51:00,
2013-01-10 04:06:00,42.5,31.0,30.44,West,269,0.0,-999.0,63,-99.99,,,0.00,weatherlink.com 1.10,2013-01-10 09:06:00,
2013-01-10 04:21:00,41.5,30.0,30.44,West,269,0.0,-999.0,65,-99.99,,,0.00,weatherlink.com 1.10,2013-01-10 09:21:00,
2013-01-10 04:36:00,40.8,31.0,30.44,West,269,0.0,-999.0,68,-99.99,,,0.00,weatherlink.com 1.10,2013-01-10 09:36:00,
2013-01-10 04:51:00,42.3,30.0,30.45,West,273,0.0,-999.0,61,-99.99,,,0.00,weatherlink.com 1.10,2013-01-10 09:51:00,
2013-01-10 05:06:00,44.1,29.0,30.45,NW,312,0.0,-999.0,55,-99.99,,,0.00,weatherlink.com 1.10,2013-01-10 10:06:00,
2013-01-10 05:21:00,44.3,28.0,30.46,West,281,0.0,-999.0,53,-99.99,,,0.00,weatherlink.com 1.10,2013-01-10 10:21:00,
2013-01-10 05:36:00,43.8,27.0,30.47,West,281,2.0,-999.0,53,-99.99,,,0.00,weatherlink.com 1.10,2013-01-10 10:36:00,
2013-01-10 05:51:00,43.1,27.0,30.47,West,281,0.0,-999.0,54,-99.99,,,0.00,weatherlink.com 1.10,2013-01-10 10:51:00,
2013-01-10 06:06:00,41.8,27.0,30.47,West,281,0.0,-999.0,57,-99.99,,,0.00,weatherlink.com 1.10,2013-01-10 11:06:00,
2013-01-10 06:21:00,41.5,27.0,30.48,West,280,0.0,-999.0,57,-99.99,,,0.00,weatherlink.com 1.10,2013-01-10 11:21:00,
2013-01-10 06:36:00,41.3,27.0,30.49,West,281,0.0,-999.0,57,-99.99,,,0.00,weatherlink.com 1.10,2013-01-10 11:36:00,
2013-01-10 06:51:00,40.1,27.0,30.50,West,281,0.0,-999.0,60,-99.99,,,0.00,weatherlink.com 1.10,2013-01-10 11:51:00,
2013-01-10 07:06:00,41.2,26.0,30.50,WNW,292,0.0,-999.0,56,-99.99,,,0.00,weatherlink.com 1.10,2013-01-10 12:06:00,
2013-01-10 07:21:00,40.6,26.0,30.52,West,266,0.0,-999.0,57,-99.99,,,0.00,weatherlink.com 1.10,2013-01-10 12:21:00,
2013-01-10 07:36:00,40.1,26.0,30.53,West,266,0.0,-999.0,58,-99.99,,,0.00,weatherlink.com 1.10,2013-01-10 12:36:00,
2013-01-10 07:51:00,40.5,27.0,30.54,West,266,1.0,-999.0,58,-99.99,,,0.00,weatherlink.com 1.10,2013-01-10 12:51:00,
2013-01-10 08:06:00,40.9,27.0,30.55,West,280,0.0,-999.0,57,-99.99,,,0.00,weatherlink.com 1.10,2013-01-10 13:06:00,
2013-01-10 08:21:00,41.3,27.0,30.56,West,281,0.0,-999.0,57,-99.99,,,0.00,weatherlink.com 1.10,2013-01-10 13:21:00,
2013-01-10 08:36:00,42.2,27.0,30.56,WNW,287,0.0,-999.0,56,-99.99,,,0.00,weatherlink.com 1.10,2013-01-10 13:36:00,
2013-01-10 08:51:00,44.1,27.0,30.57,North,354,2.0,-999.0,52,-99.99,,,0.00,weatherlink.com 1.10,2013-01-10 13:51:00,
2013-01-10 09:21:00,45.5,28.0,30.58,NW,306,7.0,-999.0,51,-99.99,,,0.00,weatherlink.com 1.10,2013-01-10 14:21:00,
2013-01-10 09:36:00,46.0,28.0,30.58,NNW,341,1.0,-999.0,50,-99.99,,,0.00,weatherlink.com 1.10,2013-01-10 14:36:00,
2013-01-10 10:06:00,46.7,29.0,30.59,WNW,284,6.0,-999.0,50,-99.99,,,0.00,weatherlink.com 1.10,2013-01-10 15:06:00,
2013-01-10 10:21:00,47.0,28.0,30.59,North,0,1.0,-999.0,48,-99.99,,,0.00,weatherlink.com 1.10,2013-01-10 15:21:00,
2013-01-10 10:36:00,47.7,28.0,30.59,North,357,0.0,-999.0,47,-99.99,,,0.00,weatherlink.com 1.10,2013-01-10 15:36:00,
2013-01-10 10:51:00,48.2,28.0,30.59,NNW,347,2.0,-999.0,46,-99.99,,,0.00,weatherlink.com 1.10,2013-01-10 15:51:00,
2013-01-10 11:06:00,48.8,29.0,30.58,NW,324,2.0,-999.0,46,-99.99,,,0.00,weatherlink.com 1.10,2013-01-10 16:06:00,
2013-01-10 11:21:00,48.5,28.0,30.57,NNW,345,0.0,-999.0,45,-99.99,,,0.00,weatherlink.com 1.10,2013-01-10 16:21:00,
2013-01-10 11:36:00,48.9,28.0,30.57,North,4,2.0,-999.0,45,-99.99,,,0.00,weatherlink.com 1.10,2013-01-10 16:36:00,
2013-01-10 11:51:00,49.1,28.0,30.56,NNE,20,2.0,-999.0,45,-99.99,,,0.00,weatherlink.com 1.10,2013-01-10 16:51:00,
2013-01-10 12:06:00,49.5,28.0,30.54,North,0,0.0,-999.0,44,-99.99,,,0.00,weatherlink.com 1.10,2013-01-10 17:06:00,
2013-01-10 12:21:00,49.8,28.0,30.54,NW,321,1.0,-999.0,43,-99.99,,,0.00,weatherlink.com 1.10,2013-01-10 17:21:00,
2013-01-10 12:36:00,50.1,28.0,30.53,North,359,0.0,-999.0,43,-99.99,,,0.00,weatherlink.com 1.10,2013-01-10 17:36:00,
2013-01-10 12:51:00,50.5,28.0,30.53,North,359,7.0,-999.0,42,-99.99,,,0.00,weatherlink.com 1.10,2013-01-10 17:51:00,
2013-01-10 13:06:00,51.3,29.0,30.52,WNW,283,0.0,-999.0,42,-99.99,,,0.00,weatherlink.com 1.10,2013-01-10 18:06:00,
2013-01-10 13:21:00,51.3,28.0,30.52,WNW,303,2.0,-999.0,40,-99.99,,,0.00,weatherlink.com 1.10,2013-01-10 18:21:00,
2013-01-10 13:36:00,52.0,28.0,30.52,WNW,302,3.0,-999.0,40,-99.99,,,0.00,weatherlink.com 1.10,2013-01-10 18:36:00,
2013-01-10 13:51:00,52.0,28.0,30.52,NNW,342,0.0,-999.0,39,-99.99,,,0.00,weatherlink.com 1.10,2013-01-10 18:51:00,
2013-01-10 14:06:00,52.5,28.0,30.52,North,1,3.0,-999.0,39,-99.99,,,0.00,weatherlink.com 1.10,2013-01-10 19:06:00,
2013-01-10 14:21:00,52.6,29.0,30.51,North,1,2.0,-999.0,40,-99.99,,,0.00,weatherlink.com 1.10,2013-01-10 19:21:00,
2013-01-10 14:36:00,52.5,27.0,30.51,NNW,347,3.0,-999.0,38,-99.99,,,0.00,weatherlink.com 1.10,2013-01-10 19:36:00,
2013-01-10 14:51:00,52.3,27.0,30.51,NNW,327,0.0,-999.0,38,-99.99,,,0.00,weatherlink.com 1.10,2013-01-10 19:51:00,
2013-01-10 15:06:00,52.9,28.0,30.50,NW,322,0.0,-999.0,38,-99.99,,,0.00,weatherlink.com 1.10,2013-01-10 20:06:00,
2013-01-10 15:21:00,52.0,29.0,30.51,East,85,0.0,-999.0,42,-99.99,,,0.00,weatherlink.com 1.10,2013-01-10 20:21:00,
2013-01-10 15:36:00,51.7,28.0,30.52,East,85,0.0,-999.0,40,-99.99,,,0.00,weatherlink.com 1.10,2013-01-10 20:36:00,
2013-01-10 15:51:00,50.4,33.0,30.52,SE,143,0.0,-999.0,51,-99.99,,,0.00,weatherlink.com 1.10,2013-01-10 20:51:00,
2013-01-10 16:06:00,48.8,33.0,30.52,SE,129,0.0,-999.0,54,-99.99,,,0.00,weatherlink.com 1.10,2013-01-10 21:06:00,
2013-01-10 16:21:00,47.3,32.0,30.52,SE,129,0.0,-999.0,55,-99.99,,,0.00,weatherlink.com 1.10,2013-01-10 21:21:00,
2013-01-10 16:36:00,46.4,31.0,30.52,SE,129,0.0,-999.0,56,-99.99,,,0.00,weatherlink.com 1.10,2013-01-10 21:36:00,
2013-01-10 16:51:00,45.2,31.0,30.52,SE,129,0.0,-999.0,59,-99.99,,,0.00,weatherlink.com 1.10,2013-01-10 21:51:00,
2013-01-10 17:06:00,44.6,31.0,30.52,SE,129,0.0,-999.0,59,-99.99,,,0.00,weatherlink.com 1.10,2013-01-10 22:06:00,
2013-01-10 17:21:00,44.1,31.0,30.51,SE,129,0.0,-999.0,60,-99.99,,,0.00,weatherlink.com 1.10,2013-01-10 22:21:00,
2013-01-10 17:36:00,44.1,30.0,30.52,SE,129,0.0,-999.0,59,-99.99,,,0.00,weatherlink.com 1.10,2013-01-10 22:36:00,
2013-01-10 17:51:00,43.8,31.0,30.51,SE,129,0.0,-999.0,60,-99.99,,,0.00,weatherlink.com 1.10,2013-01-10 22:51:00,
2013-01-10 18:06:00,43.8,30.0,30.51,SE,129,0.0,-999.0,59,-99.99,,,0.00,weatherlink.com 1.10,2013-01-10 23:06:00,
2013-01-10 18:21:00,43.3,30.0,30.51,SE,129,0.0,-999.0,61,-99.99,,,0.00,weatherlink.com 1.10,2013-01-10 23:21:00,
2013-01-10 18:36:00,43.1,31.0,30.52,SE,129,0.0,-999.0,62,-99.99,,,0.00,weatherlink.com 1.10,2013-01-10 23:36:00,
2013-01-10 18:51:00,42.9,31.0,30.53,SE,129,0.0,-999.0,62,-99.99,,,0.00,weatherlink.com 1.10,2013-01-10 23:51:00,
2013-01-10 19:06:00,42.8,31.0,30.52,SE,129,0.0,-999.0,64,-99.99,,,0.00,weatherlink.com 1.10,2013-01-11 00:06:00,
2013-01-10 19:21:00,42.6,31.0,30.52,SE,129,0.0,-999.0,65,-99.99,,,0.00,weatherlink.com 1.10,2013-01-11 00:21:00,
2013-01-10 19:36:00,42.1,31.0,30.53,SE,129,0.0,-999.0,65,-99.99,,,0.00,weatherlink.com 1.10,2013-01-11 00:36:00,
2013-01-10 19:51:00,41.5,32.0,30.53,SE,129,0.0,-999.0,68,-99.99,,,0.00,weatherlink.com 1.10,2013-01-11 00:51:00,
2013-01-10 20:06:00,41.6,32.0,30.53,SE,129,0.0,-999.0,68,-99.99,,,0.00,weatherlink.com 1.10,2013-01-11 01:06:00,
2013-01-10 20:21:00,41.2,32.0,30.52,SE,129,0.0,-999.0,69,-99.99,,,0.00,weatherlink.com 1.10,2013-01-11 01:21:00,
2013-01-10 20:36:00,40.9,31.0,30.52,SE,129,0.0,-999.0,69,-99.99,,,0.00,weatherlink.com 1.10,2013-01-11 01:36:00,
2013-01-10 20:51:00,40.8,31.0,30.53,SE,129,0.0,-999.0,69,-99.99,,,0.00,weatherlink.com 1.10,2013-01-11 01:51:00,
2013-01-10 21:06:00,40.2,32.0,30.53,SE,129,0.0,-999.0,73,-99.99,,,0.00,weatherlink.com 1.10,2013-01-11 02:06:00,
2013-01-10 21:21:00,40.9,32.0,30.53,SE,129,0.0,-999.0,70,-99.99,,,0.00,weatherlink.com 1.10,2013-01-11 02:21:00,
2013-01-10 21:36:00,40.9,31.0,30.53,SE,129,0.0,-999.0,69,-99.99,,,0.00,weatherlink.com 1.10,2013-01-11 02:36:00,
2013-01-10 21:51:00,40.5,31.0,30.53,SE,129,0.0,-999.0,69,-99.99,,,0.00,weatherlink.com 1.10,2013-01-11 02:51:00,
2013-01-10 22:08:00,40.8,31.0,30.53,SE,129,0.0,-999.0,67,-99.99,,,0.00,weatherlink.com 1.10,2013-01-11 03:08:00,
2013-01-10 22:21:00,39.8,31.0,30.53,SE,129,0.0,-999.0,70,-99.99,,,0.00,weatherlink.com 1.10,2013-01-11 03:21:00,
2013-01-10 22:36:00,38.8,31.0,30.52,SE,129,0.0,-999.0,73,-99.99,,,0.00,weatherlink.com 1.10,2013-01-11 03:36:00,
2013-01-10 22:51:00,38.9,31.0,30.51,SE,129,0.0,-999.0,72,-99.99,,,0.00,weatherlink.com 1.10,2013-01-11 03:51:00,
2013-01-10 23:06:00,39.5,30.0,30.52,SE,129,0.0,-999.0,70,-99.99,,,0.00,weatherlink.com 1.10,2013-01-11 04:06:00,
2013-01-10 23:21:00,38.9,31.0,30.52,SE,129,0.0,-999.0,72,-99.99,,,0.00,weatherlink.com 1.10,2013-01-11 04:21:00,
2013-01-10 23:36:00,38.5,31.0,30.52,SE,129,0.0,-999.0,73,-99.99,,,0.00,weatherlink.com 1.10,2013-01-11 04:36:00,
2013-01-10 23:51:00,38.2,31.0,30.52,SE,129,0.0,-999.0,74,-99.99,,,0.00,weatherlink.com 1.10,2013-01-11 04:51:00,